Hutchins, Texas
Current Conditions -  °F | °C
As of 12:35 PM on Sunday 21 Dec 2014 (Local Time) from KLNC Reporting Station
Overcast Overcast  
Wind Chill: 45°   Ceiling: 1700
Heat Index: 49°   Visibility: 10mi
Dew Point: 43°   Wind: 10mph
Humidity: 78%   Direction: 160°SSE
Pressure: 30.01"   Gusts: NA
Location:  32.65°N, 96.71°W
Report Text: KLNC 211835Z AUTO 16009KT 10SM OVC017 10/06 A3001 RMK AO2 T00960059
Loading
Personal Weather Stations






























Interactive Weather Map New forecast layout! Learn more

10-Day Weather Forecast

Advertisements
Track Severe Weather on mobile